Mount Princeton, Colorado
Current Conditions -  °F | °C
As of 12:54 PM on Saturday 25 Oct 2014 (Local Time) from K7BM Reporting Station
Clear Clear  
Wind Chill: 63°   Ceiling: Unl
Heat Index: 63°   Visibility: 10mi
Dew Point: -6°   Wind: 0mph
Humidity: 6%   Direction: NA
Pressure: 30.47"   Gusts: NA
Location:  38.7194°N, 106.276°W
Report Text: K7BM 251854Z AUTO 00000KT 10SM CLR 17/M21 A3047 RMK AO2
Loading
Personal Weather Stations






























Interactive Weather Map New forecast layout! Learn more

10-Day Weather Forecast

Advertisements
Track Severe Weather on mobile